createdAt,value
2023-05-14T00:01:08.207Z,82.68
2023-05-14T00:04:10.552Z,82.71
2023-05-14T00:07:12.938Z,82.10
2023-05-14T00:10:15.245Z,83.40
2023-05-14T00:13:17.514Z,82.41
2023-05-14T00:16:20.099Z,81.32
2023-05-14T00:19:22.516Z,82.17
2023-05-14T00:22:24.973Z,82.46
2023-05-14T00:25:27.655Z,82.78
2023-05-14T00:28:29.919Z,82.47
2023-05-14T00:31:32.343Z,82.51
2023-05-14T00:34:35.144Z,83.03
2023-05-14T00:37:37.548Z,82.97
2023-05-14T00:40:41.561Z,83.17
2023-05-14T00:43:44.075Z,82.42
2023-05-14T00:46:46.411Z,82.75
2023-05-14T00:49:48.803Z,83.64
2023-05-14T00:52:51.085Z,84.19
2023-05-14T00:55:53.667Z,84.00
2023-05-14T00:58:56.058Z,83.20
2023-05-14T01:01:58.642Z,83.33
2023-05-14T01:05:01.540Z,84.10
2023-05-14T01:08:33.688Z,83.68
2023-05-14T01:11:48.732Z,83.95
2023-05-14T01:14:56.942Z,85.10
2023-05-14T01:18:03.403Z,83.24
2023-05-14T01:21:06.368Z,84.10
2023-05-14T01:24:09.413Z,83.41
2023-05-14T01:27:39.497Z,82.83
2023-05-14T01:31:01.620Z,83.19
2023-05-14T01:34:05.775Z,83.64
2023-05-14T01:37:09.840Z,84.13
2023-05-14T01:40:12.907Z,84.39
2023-05-14T01:43:16.102Z,83.96
2023-05-14T01:46:24.168Z,84.72
2023-05-14T01:49:26.548Z,84.33
2023-05-14T01:52:28.819Z,83.81
2023-05-14T01:55:31.192Z,83.32
2023-05-14T01:58:33.455Z,83.21
2023-05-14T02:01:36.077Z,84.04
2023-05-14T02:04:38.753Z,83.29
2023-05-14T02:07:41.045Z,83.42
2023-05-14T02:10:44.388Z,84.07
2023-05-14T02:13:46.795Z,83.56
2023-05-14T02:16:51.043Z,83.44
2023-05-14T02:19:53.448Z,83.41
2023-05-14T02:22:55.802Z,83.99
2023-05-14T02:25:58.052Z,84.05
2023-05-14T02:29:00.318Z,84.20
2023-05-14T02:32:02.553Z,84.28
2023-05-14T02:35:05.352Z,83.79
2023-05-14T02:38:08.073Z,84.77
2023-05-14T02:41:10.531Z,84.56
2023-05-14T02:44:13.468Z,85.39
2023-05-14T02:47:15.782Z,83.28
2023-05-14T02:50:18.120Z,85.32
2023-05-14T02:53:20.393Z,83.87
2023-05-14T02:56:22.663Z,84.28
2023-05-14T02:59:25.213Z,84.59
2023-05-14T03:02:28.428Z,84.31
2023-05-14T03:05:31.206Z,84.14
2023-05-14T03:08:33.553Z,84.08
2023-05-14T03:11:35.994Z,83.79
2023-05-14T03:14:38.249Z,83.68
2023-05-14T03:17:40.731Z,84.72
2023-05-14T03:20:43.163Z,84.32
2023-05-14T03:23:45.499Z,84.54
2023-05-14T03:26:47.823Z,83.89
2023-05-14T03:29:50.073Z,85.15
2023-05-14T03:32:52.508Z,83.83
2023-05-14T03:35:54.837Z,82.56
2023-05-14T03:38:57.095Z,83.42
2023-05-14T03:41:59.501Z,82.76
2023-05-14T03:45:02.096Z,83.80
2023-05-14T03:48:04.904Z,83.48
2023-05-14T03:51:08.080Z,83.94
2023-05-14T03:54:11.648Z,82.87
2023-05-14T03:57:14.167Z,81.35
2023-05-14T04:00:16.710Z,82.33
2023-05-14T04:03:19.415Z,83.13
2023-05-14T04:06:22.376Z,82.53
2023-05-14T04:09:24.820Z,82.37
2023-05-14T04:12:27.208Z,80.45
2023-05-14T04:15:30.049Z,82.27
2023-05-14T04:18:35.354Z,81.49
2023-05-14T04:21:37.687Z,82.74
2023-05-14T04:24:40.208Z,80.03
2023-05-14T04:27:42.515Z,79.93
2023-05-14T04:30:45.745Z,82.06
2023-05-14T04:33:48.397Z,81.05
2023-05-14T04:36:51.442Z,80.37
2023-05-14T04:39:53.791Z,81.11
2023-05-14T04:42:56.054Z,81.16
2023-05-14T04:45:58.392Z,82.08
2023-05-14T04:49:00.693Z,81.48
2023-05-14T04:52:02.957Z,80.89
2023-05-14T04:55:06.039Z,80.52
2023-05-14T04:58:08.404Z,80.83
2023-05-14T05:01:10.771Z,80.14
2023-05-14T05:04:13.526Z,81.47
2023-05-14T05:07:16.113Z,80.44
2023-05-14T05:10:18.417Z,80.53
2023-05-14T05:13:20.829Z,79.95
2023-05-14T05:16:23.276Z,81.72
2023-05-14T05:19:35.606Z,79.85
2023-05-14T05:22:42.282Z,82.54
2023-05-14T05:25:44.610Z,81.60
2023-05-14T05:28:46.892Z,82.43
2023-05-14T05:31:49.843Z,81.47
2023-05-14T05:34:52.166Z,81.23
2023-05-14T05:37:54.432Z,79.51
2023-05-14T05:40:56.823Z,79.90
2023-05-14T05:43:59.148Z,79.39
2023-05-14T05:47:01.707Z,79.67
2023-05-14T05:50:04.617Z,81.08
2023-05-14T05:53:06.895Z,80.65
2023-05-14T05:56:09.197Z,79.68
2023-05-14T05:59:11.531Z,80.17
2023-05-14T06:02:13.918Z,80.04
2023-05-14T06:05:16.471Z,79.01
2023-05-14T06:08:19.103Z,79.11
2023-05-14T06:11:21.862Z,79.26
2023-05-14T06:14:24.132Z,79.30
2023-05-14T06:17:26.909Z,79.04
2023-05-14T06:20:29.285Z,78.83
2023-05-14T06:23:31.568Z,78.83
2023-05-14T06:26:33.838Z,78.08
2023-05-14T06:29:36.484Z,77.69
2023-05-14T06:32:39.008Z,77.51
2023-05-14T06:35:41.550Z,78.58
2023-05-14T06:38:43.814Z,79.06
2023-05-14T06:41:46.106Z,77.94
2023-05-14T06:44:50.623Z,78.33
2023-05-14T06:47:53.008Z,78.72
2023-05-14T06:50:55.722Z,78.46
2023-05-14T06:53:58.248Z,77.99
2023-05-14T06:57:00.599Z,79.43
2023-05-14T07:00:03.779Z,78.62
2023-05-14T07:03:06.471Z,75.96
2023-05-14T07:06:09.291Z,75.59
2023-05-14T07:09:12.273Z,75.37
2023-05-14T07:12:14.584Z,76.29
2023-05-14T07:15:16.992Z,77.46
2023-05-14T07:18:19.425Z,76.29
2023-05-14T07:21:21.826Z,75.45
2023-05-14T07:24:24.298Z,76.83
2023-05-14T07:27:26.725Z,75.56
2023-05-14T07:30:29.040Z,76.25
2023-05-14T07:33:31.585Z,76.43
2023-05-14T07:36:34.069Z,75.50
2023-05-14T07:39:36.394Z,74.65
2023-05-14T07:42:38.814Z,75.13
2023-05-14T07:45:41.260Z,73.14
2023-05-14T07:48:43.689Z,73.84
2023-05-14T07:51:46.296Z,71.95
2023-05-14T07:54:50.614Z,72.12
2023-05-14T07:57:53.145Z,70.74
2023-05-14T08:00:56.616Z,72.65
2023-05-14T08:03:59.274Z,73.68
2023-05-14T08:07:01.868Z,68.06
2023-05-14T08:10:04.400Z,69.20
2023-05-14T08:13:06.796Z,68.18
2023-05-14T08:16:09.335Z,68.37
2023-05-14T08:19:12.925Z,67.68
2023-05-14T08:22:15.469Z,66.15
2023-05-14T08:25:17.753Z,66.67
2023-05-14T08:28:20.062Z,67.35
2023-05-14T08:31:22.470Z,68.99
2023-05-14T08:34:24.938Z,67.54
2023-05-14T08:37:27.346Z,68.23
2023-05-14T08:40:29.641Z,67.38
2023-05-14T08:43:55.128Z,66.06
2023-05-14T08:46:57.902Z,68.17
2023-05-14T08:50:05.486Z,68.08
2023-05-14T08:53:07.937Z,67.83
2023-05-14T08:56:10.494Z,66.46
2023-05-14T08:59:13.418Z,68.85
2023-05-14T09:02:17.423Z,66.75
2023-05-14T09:05:20.427Z,68.56
2023-05-14T09:08:23.181Z,69.52
2023-05-14T09:11:25.572Z,66.50
2023-05-14T09:14:28.016Z,65.85
2023-05-14T09:17:31.809Z,68.40
2023-05-14T09:20:34.709Z,67.90
2023-05-14T09:23:42.496Z,68.10
2023-05-14T09:26:44.806Z,70.84
2023-05-14T09:29:48.098Z,69.21
2023-05-14T09:32:54.135Z,70.61
2023-05-14T09:36:02.840Z,71.40
2023-05-14T09:39:05.382Z,69.88
2023-05-14T09:42:07.945Z,69.82
2023-05-14T09:45:10.877Z,71.40
2023-05-14T09:48:13.408Z,74.22
2023-05-14T09:51:21.340Z,72.24
2023-05-14T09:54:26.164Z,70.36
2023-05-14T09:57:29.114Z,74.32
2023-05-14T10:00:35.736Z,74.49
2023-05-14T10:03:38.310Z,75.59
2023-05-14T10:06:42.979Z,75.78
2023-05-14T10:09:46.424Z,75.55
2023-05-14T10:12:52.945Z,75.75
2023-05-14T10:16:08.282Z,77.05
2023-05-14T10:19:12.347Z,74.83
2023-05-14T10:22:17.753Z,76.73
2023-05-14T10:25:20.208Z,77.32
2023-05-14T10:28:22.702Z,78.38
2023-05-14T10:31:51.370Z,78.86
2023-05-14T10:34:54.034Z,77.95
2023-05-14T10:37:56.949Z,78.63
2023-05-14T10:41:21.664Z,74.43
2023-05-14T10:44:24.194Z,77.70
2023-05-14T10:47:27.049Z,78.43
2023-05-14T10:50:29.769Z,74.76
2023-05-14T10:53:43.135Z,76.78
2023-05-14T10:56:49.875Z,74.83
2023-05-14T10:59:55.189Z,78.90
2023-05-14T11:02:57.870Z,80.61
2023-05-14T11:06:03.974Z,80.27
2023-05-14T11:09:06.819Z,80.00
2023-05-14T11:12:09.417Z,77.61
2023-05-14T11:15:14.161Z,78.01
2023-05-14T11:18:29.351Z,78.91
2023-05-14T11:21:32.933Z,79.74
2023-05-14T11:24:35.462Z,78.69
2023-05-14T11:27:39.230Z,77.74
2023-05-14T11:30:41.758Z,78.83
2023-05-14T11:33:44.587Z,78.18
2023-05-14T11:36:46.884Z,76.76
2023-05-14T11:39:51.200Z,81.71
2023-05-14T11:42:53.791Z,81.95
2023-05-14T11:45:56.827Z,80.85
2023-05-14T11:48:59.182Z,81.15
2023-05-14T11:52:03.042Z,81.75
2023-05-14T11:55:06.374Z,79.41
2023-05-14T11:58:08.810Z,78.87
2023-05-14T12:01:13.654Z,79.44
2023-05-14T12:04:19.024Z,79.54
2023-05-14T12:07:21.420Z,82.55
2023-05-14T12:10:24.193Z,82.39
2023-05-14T12:13:28.314Z,83.84
2023-05-14T12:16:35.549Z,83.14
2023-05-14T12:19:42.011Z,82.66
2023-05-14T12:22:44.413Z,82.98
2023-05-14T12:25:51.430Z,83.42
2023-05-14T12:29:00.005Z,82.48
2023-05-14T12:32:04.671Z,82.42
2023-05-14T12:35:07.257Z,86.07
2023-05-14T12:38:09.845Z,83.12
2023-05-14T12:41:12.106Z,85.69
2023-05-14T12:44:14.378Z,85.16
2023-05-14T12:47:17.323Z,86.34
2023-05-14T12:50:19.786Z,86.23
2023-05-14T12:53:22.057Z,86.14
2023-05-14T12:56:28.256Z,85.96
2023-05-14T12:59:30.575Z,85.61
2023-05-14T13:02:32.890Z,87.37
2023-05-14T13:05:35.221Z,86.43
2023-05-14T13:08:37.555Z,86.55
2023-05-14T13:11:39.929Z,87.42
2023-05-14T13:14:42.208Z,86.36
2023-05-14T13:17:44.596Z,87.22
2023-05-14T13:20:50.113Z,87.39
2023-05-14T13:23:52.407Z,88.77
2023-05-14T13:26:54.784Z,88.94
2023-05-14T13:29:57.119Z,88.71
2023-05-14T13:33:00.097Z,89.03
2023-05-14T13:36:02.864Z,90.17
2023-05-14T13:39:06.856Z,89.75
2023-05-14T13:42:09.411Z,90.04
2023-05-14T13:45:13.112Z,89.73
2023-05-14T13:48:15.502Z,89.84
2023-05-14T13:51:17.931Z,90.22
2023-05-14T13:54:20.355Z,90.06
2023-05-14T13:57:23.148Z,89.88
2023-05-14T14:00:27.172Z,89.39
2023-05-14T14:03:29.453Z,89.39
2023-05-14T14:06:34.635Z,89.51
2023-05-14T14:09:36.973Z,89.44
2023-05-14T14:12:39.349Z,90.04
2023-05-14T14:15:41.732Z,91.28
2023-05-14T14:18:45.126Z,90.36
2023-05-14T14:21:47.842Z,90.35
2023-05-14T14:24:50.136Z,89.33
2023-05-14T14:27:52.532Z,88.83
2023-05-14T14:30:54.834Z,89.58
2023-05-14T14:33:57.188Z,90.73
2023-05-14T14:36:59.486Z,90.32
2023-05-14T14:40:01.743Z,90.20
2023-05-14T14:43:04.075Z,90.70
2023-05-14T14:46:06.717Z,91.06
2023-05-14T14:49:09.165Z,91.54
2023-05-14T14:52:11.491Z,91.10
2023-05-14T14:55:13.777Z,91.39
2023-05-14T14:58:16.085Z,91.11
2023-05-14T15:01:18.584Z,90.62
2023-05-14T15:04:20.886Z,90.44
2023-05-14T15:07:23.169Z,90.35
2023-05-14T15:10:28.645Z,91.11
2023-05-14T15:13:31.228Z,91.63
2023-05-14T15:16:33.619Z,91.89
2023-05-14T15:19:36.232Z,91.72
2023-05-14T15:22:38.645Z,92.68
2023-05-14T15:25:41.052Z,92.12
2023-05-14T15:28:43.637Z,92.96
2023-05-14T15:31:46.231Z,92.12
2023-05-14T15:34:48.501Z,92.55
2023-05-14T15:37:50.904Z,92.11
2023-05-14T15:40:53.304Z,91.96
2023-05-14T15:43:56.231Z,92.18
2023-05-14T15:46:58.546Z,92.18
2023-05-14T15:50:01.216Z,92.93
2023-05-14T15:53:03.626Z,92.90
2023-05-14T15:56:06.303Z,92.76
2023-05-14T15:59:08.664Z,93.13
2023-05-14T16:02:11.396Z,93.13
2023-05-14T16:05:15.178Z,92.74
2023-05-14T16:08:17.477Z,93.18
2023-05-14T16:11:19.757Z,93.47
2023-05-14T16:14:22.898Z,93.52
2023-05-14T16:17:26.811Z,93.10
2023-05-14T16:20:29.195Z,93.08
2023-05-14T16:23:31.449Z,93.42
2023-05-14T16:26:33.838Z,92.80
2023-05-14T16:29:36.298Z,93.69
2023-05-14T16:32:38.703Z,93.25
2023-05-14T16:35:41.100Z,93.64
2023-05-14T16:38:57.170Z,93.37
2023-05-14T16:42:06.193Z,93.54
2023-05-14T16:45:09.119Z,93.75
2023-05-14T16:48:11.656Z,93.63
2023-05-14T16:51:14.115Z,93.71
2023-05-14T16:54:16.681Z,93.75
2023-05-14T16:57:19.127Z,93.24
2023-05-14T17:00:21.561Z,93.48
2023-05-14T17:03:23.954Z,93.78
2023-05-14T17:06:26.283Z,93.05
2023-05-14T17:09:28.645Z,93.47
2023-05-14T17:12:30.946Z,93.40
2023-05-14T17:15:33.636Z,92.71
2023-05-14T17:18:36.061Z,93.10
2023-05-14T17:21:38.393Z,93.02
2023-05-14T17:24:40.786Z,93.01
2023-05-14T17:27:43.076Z,92.81
2023-05-14T17:30:45.641Z,93.07
2023-05-14T17:33:47.921Z,93.39
2023-05-14T17:36:50.495Z,92.88
2023-05-14T17:39:53.175Z,92.43
2023-05-14T17:42:55.443Z,92.52
2023-05-14T17:45:57.952Z,92.74
2023-05-14T17:49:00.216Z,92.62
2023-05-14T17:52:02.826Z,93.45
2023-05-14T17:55:05.592Z,93.37
2023-05-14T17:58:07.918Z,93.47
2023-05-14T18:01:10.318Z,93.77
2023-05-14T18:04:12.827Z,93.75
2023-05-14T18:07:15.193Z,93.19
2023-05-14T18:10:17.783Z,94.14
2023-05-14T18:13:20.176Z,93.88
2023-05-14T18:16:26.916Z,93.79
2023-05-14T18:19:29.241Z,93.47
2023-05-14T18:22:32.154Z,93.77
2023-05-14T18:25:34.435Z,93.49
2023-05-14T18:28:37.289Z,93.70
2023-05-14T18:31:39.573Z,93.61
2023-05-14T18:34:41.860Z,93.83
2023-05-14T18:37:44.122Z,93.90
2023-05-14T18:40:46.665Z,94.24
2023-05-14T18:43:48.910Z,93.82
2023-05-14T18:46:51.289Z,94.15
2023-05-14T18:49:55.790Z,94.36
2023-05-14T18:53:02.948Z,93.59
2023-05-14T18:56:15.365Z,94.40
2023-05-14T18:59:18.944Z,94.45
2023-05-14T19:02:22.150Z,94.39
2023-05-14T19:05:24.646Z,94.75
2023-05-14T19:08:33.541Z,94.45
2023-05-14T19:11:40.002Z,94.47
2023-05-14T19:14:54.646Z,94.93
2023-05-14T19:17:57.719Z,94.79
2023-05-14T19:21:00.052Z,94.99
2023-05-14T19:24:02.918Z,94.76
2023-05-14T19:27:05.936Z,93.51
2023-05-14T19:30:33.956Z,94.39
2023-05-14T19:33:39.219Z,94.54
2023-05-14T19:36:42.080Z,94.73
2023-05-14T19:39:44.640Z,94.81
2023-05-14T19:42:51.788Z,94.81
2023-05-14T19:45:54.727Z,95.01
2023-05-14T19:48:57.845Z,95.02
2023-05-14T19:52:00.458Z,95.09
2023-05-14T19:55:02.813Z,94.79
2023-05-14T19:58:05.088Z,94.95
2023-05-14T20:01:07.979Z,95.34
2023-05-14T20:04:12.072Z,95.33
2023-05-14T20:07:30.225Z,95.03
2023-05-14T20:10:32.452Z,95.12
2023-05-14T20:13:38.743Z,95.07
2023-05-14T20:16:41.709Z,95.11
2023-05-14T20:19:50.173Z,95.30
2023-05-14T20:23:21.682Z,95.45
2023-05-14T20:26:24.025Z,95.46
2023-05-14T20:29:26.328Z,95.37
2023-05-14T20:32:28.727Z,95.25
2023-05-14T20:35:31.272Z,95.30
2023-05-14T20:38:35.016Z,95.43
2023-05-14T20:41:37.949Z,95.38
2023-05-14T20:44:40.318Z,95.33
2023-05-14T20:47:42.722Z,95.20
2023-05-14T20:50:44.954Z,95.34
2023-05-14T20:53:47.509Z,94.95
2023-05-14T20:56:49.818Z,94.90
2023-05-14T20:59:52.106Z,95.13
2023-05-14T21:02:54.628Z,94.96
2023-05-14T21:05:57.081Z,94.60
2023-05-14T21:08:59.507Z,94.71
2023-05-14T21:12:01.789Z,94.97
2023-05-14T21:15:04.553Z,94.74
2023-05-14T21:18:06.853Z,94.58
2023-05-14T21:21:09.174Z,94.91
2023-05-14T21:24:11.489Z,94.65
2023-05-14T21:27:13.807Z,94.41
2023-05-14T21:30:16.085Z,94.37
2023-05-14T21:33:18.964Z,94.65
2023-05-14T21:36:21.396Z,94.35
2023-05-14T21:39:23.646Z,94.68
2023-05-14T21:42:26.004Z,94.89
2023-05-14T21:45:28.689Z,94.72
2023-05-14T21:48:31.175Z,94.70
2023-05-14T21:51:34.077Z,94.64
2023-05-14T21:54:36.392Z,95.10
2023-05-14T21:57:38.633Z,94.51
2023-05-14T22:00:41.204Z,94.78
2023-05-14T22:03:43.501Z,94.94
2023-05-14T22:06:46.000Z,95.12
2023-05-14T22:09:49.333Z,94.87
2023-05-14T22:12:52.363Z,94.87
2023-05-14T22:16:01.350Z,95.37
2023-05-14T22:19:16.455Z,94.83
2023-05-14T22:22:19.059Z,95.22
2023-05-14T22:25:21.327Z,94.96
2023-05-14T22:28:23.788Z,94.93
2023-05-14T22:31:26.081Z,95.03
2023-05-14T22:34:28.394Z,94.94
2023-05-14T22:37:30.801Z,95.05
2023-05-14T22:40:33.129Z,94.87
2023-05-14T22:43:35.410Z,94.77
2023-05-14T22:46:37.894Z,94.74
2023-05-14T22:49:40.717Z,95.16
2023-05-14T22:52:42.994Z,94.75
2023-05-14T22:55:45.581Z,94.93
2023-05-14T22:58:48.061Z,95.01
2023-05-14T23:01:50.462Z,94.94
2023-05-14T23:04:52.933Z,95.18
2023-05-14T23:07:55.500Z,95.38
2023-05-14T23:10:57.738Z,95.37
2023-05-14T23:14:00.010Z,95.13
2023-05-14T23:17:02.237Z,95.08
2023-05-14T23:20:06.054Z,94.70
2023-05-14T23:23:08.493Z,95.10
2023-05-14T23:26:11.008Z,94.89
2023-05-14T23:29:13.288Z,94.84
2023-05-14T23:32:15.636Z,95.04
2023-05-14T23:35:17.936Z,94.87
2023-05-14T23:38:21.012Z,94.65
2023-05-14T23:41:23.372Z,94.73
2023-05-14T23:44:26.930Z,94.38
2023-05-14T23:47:29.301Z,94.60
2023-05-14T23:50:31.928Z,94.31
2023-05-14T23:53:34.616Z,94.63
2023-05-14T23:56:37.307Z,94.97
2023-05-14T23:59:40.535Z,95.40
